sensor_id;sensor_type;location;lat;lon;timestamp;P1;durP1;ratioP1;P2;durP2;ratioP2
22650;SDS011;11492;42.646;23.400;2024-01-07T00:02:02;19.27;;;8.02;;
22650;SDS011;11492;42.646;23.400;2024-01-07T00:04:27;18.80;;;7.50;;
22650;SDS011;11492;42.646;23.400;2024-01-07T00:06:53;19.95;;;7.95;;
22650;SDS011;11492;42.646;23.400;2024-01-07T00:09:19;20.15;;;8.73;;
22650;SDS011;11492;42.646;23.400;2024-01-07T00:11:45;13.90;;;7.30;;
22650;SDS011;11492;42.646;23.400;2024-01-07T00:14:10;19.77;;;7.25;;
22650;SDS011;11492;42.646;23.400;2024-01-07T00:16:36;21.63;;;8.43;;
22650;SDS011;11492;42.646;23.400;2024-01-07T00:19:02;17.83;;;7.60;;
22650;SDS011;11492;42.646;23.400;2024-01-07T00:21:28;19.63;;;8.18;;
22650;SDS011;11492;42.646;23.400;2024-01-07T00:23:54;16.10;;;7.43;;
22650;SDS011;11492;42.646;23.400;2024-01-07T00:26:19;17.52;;;7.82;;
22650;SDS011;11492;42.646;23.400;2024-01-07T00:28:45;18.52;;;7.72;;
22650;SDS011;11492;42.646;23.400;2024-01-07T00:31:12;14.60;;;7.28;;
22650;SDS011;11492;42.646;23.400;2024-01-07T00:33:38;15.70;;;6.72;;
22650;SDS011;11492;42.646;23.400;2024-01-07T00:36:04;22.67;;;6.78;;
22650;SDS011;11492;42.646;23.400;2024-01-07T00:38:30;16.20;;;7.25;;
22650;SDS011;11492;42.646;23.400;2024-01-07T00:40:56;15.00;;;7.38;;
22650;SDS011;11492;42.646;23.400;2024-01-07T00:43:22;13.90;;;7.55;;
22650;SDS011;11492;42.646;23.400;2024-01-07T00:45:47;13.10;;;7.03;;
22650;SDS011;11492;42.646;23.400;2024-01-07T00:48:14;19.50;;;8.10;;
22650;SDS011;11492;42.646;23.400;2024-01-07T00:50:40;14.18;;;6.95;;
22650;SDS011;11492;42.646;23.400;2024-01-07T00:53:06;16.52;;;7.25;;
22650;SDS011;11492;42.646;23.400;2024-01-07T00:55:32;14.70;;;7.55;;
22650;SDS011;11492;42.646;23.400;2024-01-07T00:57:58;18.30;;;8.73;;
22650;SDS011;11492;42.646;23.400;2024-01-07T01:00:24;20.05;;;7.95;;
22650;SDS011;11492;42.646;23.400;2024-01-07T01:02:49;24.52;;;13.07;;
22650;SDS011;11492;42.646;23.400;2024-01-07T01:05:15;35.72;;;17.30;;
22650;SDS011;11492;42.646;23.400;2024-01-07T01:07:41;41.25;;;19.15;;
22650;SDS011;11492;42.646;23.400;2024-01-07T01:10:07;39.63;;;18.75;;
22650;SDS011;11492;42.646;23.400;2024-01-07T01:12:34;36.75;;;19.00;;
22650;SDS011;11492;42.646;23.400;2024-01-07T01:15:00;44.60;;;20.33;;
22650;SDS011;11492;42.646;23.400;2024-01-07T01:17:26;44.85;;;22.27;;
22650;SDS011;11492;42.646;23.400;2024-01-07T01:19:52;43.38;;;21.38;;
22650;SDS011;11492;42.646;23.400;2024-01-07T01:22:18;46.63;;;21.98;;
22650;SDS011;11492;42.646;23.400;2024-01-07T01:24:43;39.42;;;20.88;;
22650;SDS011;11492;42.646;23.400;2024-01-07T01:27:11;43.92;;;21.73;;
22650;SDS011;11492;42.646;23.400;2024-01-07T01:29:38;42.78;;;21.88;;
22650;SDS011;11492;42.646;23.400;2024-01-07T01:32:05;44.80;;;21.73;;
22650;SDS011;11492;42.646;23.400;2024-01-07T01:34:31;51.92;;;21.27;;
22650;SDS011;11492;42.646;23.400;2024-01-07T01:36:57;47.72;;;21.05;;
22650;SDS011;11492;42.646;23.400;2024-01-07T01:39:23;38.92;;;19.92;;
22650;SDS011;11492;42.646;23.400;2024-01-07T01:41:48;43.08;;;20.88;;
22650;SDS011;11492;42.646;23.400;2024-01-07T01:44:14;37.40;;;18.88;;
22650;SDS011;11492;42.646;23.400;2024-01-07T01:46:40;39.95;;;19.02;;
22650;SDS011;11492;42.646;23.400;2024-01-07T01:49:06;32.83;;;17.58;;
22650;SDS011;11492;42.646;23.400;2024-01-07T01:51:33;37.45;;;18.08;;
22650;SDS011;11492;42.646;23.400;2024-01-07T01:54:00;34.70;;;17.88;;
22650;SDS011;11492;42.646;23.400;2024-01-07T01:56:27;30.67;;;16.23;;
22650;SDS011;11492;42.646;23.400;2024-01-07T01:58:54;39.45;;;17.42;;
22650;SDS011;11492;42.646;23.400;2024-01-07T02:01:21;36.65;;;15.30;;
22650;SDS011;11492;42.646;23.400;2024-01-07T02:03:49;28.73;;;15.20;;
22650;SDS011;11492;42.646;23.400;2024-01-07T02:06:17;30.90;;;15.05;;
22650;SDS011;11492;42.646;23.400;2024-01-07T02:08:45;30.13;;;14.98;;
22650;SDS011;11492;42.646;23.400;2024-01-07T02:11:14;40.92;;;16.58;;
22650;SDS011;11492;42.646;23.400;2024-01-07T02:13:44;28.55;;;15.30;;
22650;SDS011;11492;42.646;23.400;2024-01-07T02:16:10;27.73;;;15.10;;
22650;SDS011;11492;42.646;23.400;2024-01-07T02:18:36;32.33;;;14.68;;
22650;SDS011;11492;42.646;23.400;2024-01-07T02:21:09;29.17;;;15.40;;
22650;SDS011;11492;42.646;23.400;2024-01-07T02:23:36;25.25;;;14.10;;
22650;SDS011;11492;42.646;23.400;2024-01-07T02:26:02;33.13;;;14.73;;
22650;SDS011;11492;42.646;23.400;2024-01-07T02:28:29;29.13;;;14.93;;
22650;SDS011;11492;42.646;23.400;2024-01-07T02:30:56;26.38;;;14.13;;
22650;SDS011;11492;42.646;23.400;2024-01-07T02:33:21;28.63;;;12.77;;
22650;SDS011;11492;42.646;23.400;2024-01-07T02:35:47;29.83;;;13.48;;
22650;SDS011;11492;42.646;23.400;2024-01-07T02:38:13;25.35;;;12.95;;
22650;SDS011;11492;42.646;23.400;2024-01-07T02:40:39;27.52;;;13.60;;
22650;SDS011;11492;42.646;23.400;2024-01-07T02:43:04;29.70;;;13.82;;
22650;SDS011;11492;42.646;23.400;2024-01-07T02:45:30;24.00;;;13.80;;
22650;SDS011;11492;42.646;23.400;2024-01-07T02:47:56;27.60;;;14.38;;
22650;SDS011;11492;42.646;23.400;2024-01-07T02:50:22;34.08;;;14.13;;
22650;SDS011;11492;42.646;23.400;2024-01-07T02:52:48;28.42;;;14.80;;
22650;SDS011;11492;42.646;23.400;2024-01-07T02:55:13;26.67;;;13.60;;
22650;SDS011;11492;42.646;23.400;2024-01-07T02:57:39;27.88;;;14.50;;
22650;SDS011;11492;42.646;23.400;2024-01-07T03:00:05;33.20;;;14.82;;
22650;SDS011;11492;42.646;23.400;2024-01-07T03:02:32;27.35;;;13.75;;
22650;SDS011;11492;42.646;23.400;2024-01-07T03:04:57;30.52;;;12.80;;
22650;SDS011;11492;42.646;23.400;2024-01-07T03:07:23;25.80;;;13.63;;
22650;SDS011;11492;42.646;23.400;2024-01-07T03:09:49;27.33;;;13.68;;
22650;SDS011;11492;42.646;23.400;2024-01-07T03:12:15;31.05;;;13.85;;
22650;SDS011;11492;42.646;23.400;2024-01-07T03:14:41;26.27;;;13.23;;
22650;SDS011;11492;42.646;23.400;2024-01-07T03:17:07;28.50;;;13.10;;
22650;SDS011;11492;42.646;23.400;2024-01-07T03:19:35;22.25;;;8.73;;
22650;SDS011;11492;42.646;23.400;2024-01-07T03:22:03;17.60;;;8.63;;
22650;SDS011;11492;42.646;23.400;2024-01-07T03:24:28;18.17;;;7.15;;
22650;SDS011;11492;42.646;23.400;2024-01-07T03:26:54;13.25;;;5.97;;
22650;SDS011;11492;42.646;23.400;2024-01-07T03:29:20;13.57;;;6.00;;
22650;SDS011;11492;42.646;23.400;2024-01-07T03:31:46;15.82;;;5.18;;
22650;SDS011;11492;42.646;23.400;2024-01-07T03:34:12;11.93;;;5.22;;
22650;SDS011;11492;42.646;23.400;2024-01-07T03:36:37;8.68;;;4.50;;
22650;SDS011;11492;42.646;23.400;2024-01-07T03:39:03;14.35;;;4.90;;
22650;SDS011;11492;42.646;23.400;2024-01-07T03:41:29;13.98;;;5.70;;
22650;SDS011;11492;42.646;23.400;2024-01-07T03:43:54;13.27;;;6.35;;
22650;SDS011;11492;42.646;23.400;2024-01-07T03:46:22;14.27;;;6.85;;
22650;SDS011;11492;42.646;23.400;2024-01-07T03:48:48;13.95;;;6.43;;
22650;SDS011;11492;42.646;23.400;2024-01-07T03:51:14;12.35;;;6.00;;
22650;SDS011;11492;42.646;23.400;2024-01-07T03:53:39;12.95;;;7.03;;
22650;SDS011;11492;42.646;23.400;2024-01-07T03:56:05;14.02;;;6.10;;
22650;SDS011;11492;42.646;23.400;2024-01-07T03:58:31;12.90;;;5.70;;
22650;SDS011;11492;42.646;23.400;2024-01-07T04:00:57;12.20;;;5.55;;
22650;SDS011;11492;42.646;23.400;2024-01-07T04:03:23;11.98;;;6.40;;
22650;SDS011;11492;42.646;23.400;2024-01-07T04:05:50;17.00;;;6.70;;
22650;SDS011;11492;42.646;23.400;2024-01-07T04:08:16;13.45;;;6.32;;
22650;SDS011;11492;42.646;23.400;2024-01-07T04:10:42;13.52;;;6.18;;
22650;SDS011;11492;42.646;23.400;2024-01-07T04:13:07;27.70;;;11.95;;
22650;SDS011;11492;42.646;23.400;2024-01-07T04:15:33;34.70;;;15.50;;
22650;SDS011;11492;42.646;23.400;2024-01-07T04:18:03;30.85;;;16.48;;
22650;SDS011;11492;42.646;23.400;2024-01-07T04:20:29;39.45;;;17.83;;
22650;SDS011;11492;42.646;23.400;2024-01-07T04:22:55;33.53;;;16.83;;
22650;SDS011;11492;42.646;23.400;2024-01-07T04:25:22;35.20;;;17.15;;
22650;SDS011;11492;42.646;23.400;2024-01-07T04:27:49;34.38;;;17.42;;
22650;SDS011;11492;42.646;23.400;2024-01-07T04:30:14;30.98;;;17.33;;
22650;SDS011;11492;42.646;23.400;2024-01-07T04:32:40;26.00;;;16.15;;
22650;SDS011;11492;42.646;23.400;2024-01-07T04:35:06;29.98;;;14.30;;
22650;SDS011;11492;42.646;23.400;2024-01-07T04:37:33;29.90;;;15.93;;
22650;SDS011;11492;42.646;23.400;2024-01-07T04:39:58;30.73;;;16.45;;
22650;SDS011;11492;42.646;23.400;2024-01-07T04:42:24;32.33;;;16.55;;
22650;SDS011;11492;42.646;23.400;2024-01-07T04:44:50;28.90;;;16.42;;
22650;SDS011;11492;42.646;23.400;2024-01-07T04:50:08;30.50;;;16.45;;
22650;SDS011;11492;42.646;23.400;2024-01-07T04:52:34;33.08;;;16.55;;
22650;SDS011;11492;42.646;23.400;2024-01-07T04:55:00;26.42;;;15.18;;
22650;SDS011;11492;42.646;23.400;2024-01-07T04:57:25;28.13;;;14.63;;
22650;SDS011;11492;42.646;23.400;2024-01-07T04:59:51;25.40;;;14.30;;
22650;SDS011;11492;42.646;23.400;2024-01-07T05:02:18;28.88;;;14.55;;
22650;SDS011;11492;42.646;23.400;2024-01-07T05:04:44;27.83;;;13.77;;
22650;SDS011;11492;42.646;23.400;2024-01-07T05:07:10;31.02;;;14.70;;
22650;SDS011;11492;42.646;23.400;2024-01-07T05:09:37;29.98;;;15.02;;
22650;SDS011;11492;42.646;23.400;2024-01-07T05:12:03;36.00;;;15.88;;
22650;SDS011;11492;42.646;23.400;2024-01-07T05:14:29;30.10;;;16.98;;
22650;SDS011;11492;42.646;23.400;2024-01-07T05:16:55;31.20;;;17.00;;
22650;SDS011;11492;42.646;23.400;2024-01-07T05:19:21;34.53;;;17.95;;
22650;SDS011;11492;42.646;23.400;2024-01-07T05:21:47;30.92;;;18.63;;
22650;SDS011;11492;42.646;23.400;2024-01-07T05:24:13;34.03;;;18.40;;
22650;SDS011;11492;42.646;23.400;2024-01-07T05:26:39;35.78;;;19.15;;
22650;SDS011;11492;42.646;23.400;2024-01-07T05:29:06;37.67;;;19.48;;
22650;SDS011;11492;42.646;23.400;2024-01-07T05:31:33;40.92;;;20.13;;
22650;SDS011;11492;42.646;23.400;2024-01-07T05:33:59;39.60;;;20.35;;
22650;SDS011;11492;42.646;23.400;2024-01-07T05:36:25;34.45;;;20.33;;
22650;SDS011;11492;42.646;23.400;2024-01-07T05:38:51;42.53;;;19.50;;
22650;SDS011;11492;42.646;23.400;2024-01-07T05:41:17;36.33;;;19.40;;
22650;SDS011;11492;42.646;23.400;2024-01-07T05:43:43;39.38;;;19.40;;
22650;SDS011;11492;42.646;23.400;2024-01-07T05:46:09;33.70;;;19.55;;
22650;SDS011;11492;42.646;23.400;2024-01-07T05:48:45;37.05;;;19.40;;
22650;SDS011;11492;42.646;23.400;2024-01-07T05:51:13;42.67;;;18.88;;
22650;SDS011;11492;42.646;23.400;2024-01-07T05:53:40;45.88;;;20.45;;
22650;SDS011;11492;42.646;23.400;2024-01-07T05:56:06;40.42;;;19.25;;
22650;SDS011;11492;42.646;23.400;2024-01-07T05:58:33;33.33;;;19.30;;
22650;SDS011;11492;42.646;23.400;2024-01-07T06:00:58;41.80;;;21.45;;
22650;SDS011;11492;42.646;23.400;2024-01-07T06:03:25;37.42;;;20.92;;
22650;SDS011;11492;42.646;23.400;2024-01-07T06:05:51;41.80;;;21.80;;
22650;SDS011;11492;42.646;23.400;2024-01-07T06:08:17;39.67;;;21.90;;
22650;SDS011;11492;42.646;23.400;2024-01-07T06:10:43;46.05;;;22.45;;
22650;SDS011;11492;42.646;23.400;2024-01-07T06:13:09;40.97;;;23.33;;
22650;SDS011;11492;42.646;23.400;2024-01-07T06:15:35;42.22;;;21.83;;
22650;SDS011;11492;42.646;23.400;2024-01-07T06:18:01;40.95;;;22.73;;
22650;SDS011;11492;42.646;23.400;2024-01-07T06:20:27;49.65;;;24.52;;
22650;SDS011;11492;42.646;23.400;2024-01-07T06:22:54;41.53;;;23.42;;
22650;SDS011;11492;42.646;23.400;2024-01-07T06:25:19;41.10;;;23.95;;
22650;SDS011;11492;42.646;23.400;2024-01-07T06:27:45;48.58;;;23.17;;
22650;SDS011;11492;42.646;23.400;2024-01-07T06:30:11;43.88;;;24.52;;
22650;SDS011;11492;42.646;23.400;2024-01-07T06:32:39;46.17;;;23.77;;
22650;SDS011;11492;42.646;23.400;2024-01-07T06:35:05;39.67;;;23.77;;
22650;SDS011;11492;42.646;23.400;2024-01-07T06:37:43;39.13;;;22.63;;
22650;SDS011;11492;42.646;23.400;2024-01-07T06:40:09;41.53;;;22.55;;
22650;SDS011;11492;42.646;23.400;2024-01-07T06:42:36;41.47;;;23.10;;
22650;SDS011;11492;42.646;23.400;2024-01-07T06:45:02;41.88;;;22.27;;
22650;SDS011;11492;42.646;23.400;2024-01-07T06:47:29;38.83;;;22.42;;
22650;SDS011;11492;42.646;23.400;2024-01-07T06:49:54;39.72;;;22.25;;
22650;SDS011;11492;42.646;23.400;2024-01-07T06:52:20;46.72;;;23.10;;
22650;SDS011;11492;42.646;23.400;2024-01-07T06:54:46;36.00;;;21.83;;
22650;SDS011;11492;42.646;23.400;2024-01-07T06:57:12;33.17;;;21.48;;
22650;SDS011;11492;42.646;23.400;2024-01-07T06:59:37;38.15;;;20.70;;
22650;SDS011;11492;42.646;23.400;2024-01-07T07:02:03;37.42;;;20.67;;
22650;SDS011;11492;42.646;23.400;2024-01-07T07:04:29;33.92;;;20.20;;
22650;SDS011;11492;42.646;23.400;2024-01-07T07:06:55;42.17;;;24.30;;
22650;SDS011;11492;42.646;23.400;2024-01-07T07:09:22;38.60;;;21.48;;
22650;SDS011;11492;42.646;23.400;2024-01-07T07:11:48;38.70;;;22.20;;
22650;SDS011;11492;42.646;23.400;2024-01-07T07:14:14;33.72;;;19.10;;
22650;SDS011;11492;42.646;23.400;2024-01-07T07:16:39;30.98;;;18.70;;
22650;SDS011;11492;42.646;23.400;2024-01-07T07:19:05;34.13;;;19.15;;
22650;SDS011;11492;42.646;23.400;2024-01-07T07:21:31;35.17;;;18.73;;
22650;SDS011;11492;42.646;23.400;2024-01-07T07:23:56;30.23;;;17.80;;
22650;SDS011;11492;42.646;23.400;2024-01-07T07:26:22;36.63;;;18.70;;
22650;SDS011;11492;42.646;23.400;2024-01-07T07:28:48;28.10;;;17.42;;
22650;SDS011;11492;42.646;23.400;2024-01-07T07:31:14;33.50;;;19.55;;
22650;SDS011;11492;42.646;23.400;2024-01-07T07:33:39;28.63;;;18.58;;
22650;SDS011;11492;42.646;23.400;2024-01-07T07:36:05;27.88;;;14.25;;
22650;SDS011;11492;42.646;23.400;2024-01-07T07:38:31;28.08;;;16.23;;
22650;SDS011;11492;42.646;23.400;2024-01-07T07:40:57;31.63;;;15.57;;
22650;SDS011;11492;42.646;23.400;2024-01-07T07:43:24;32.78;;;15.82;;
22650;SDS011;11492;42.646;23.400;2024-01-07T07:45:50;23.55;;;14.15;;
22650;SDS011;11492;42.646;23.400;2024-01-07T07:48:16;27.55;;;13.98;;
22650;SDS011;11492;42.646;23.400;2024-01-07T07:50:42;23.20;;;13.32;;
22650;SDS011;11492;42.646;23.400;2024-01-07T07:53:08;23.55;;;11.70;;
22650;SDS011;11492;42.646;23.400;2024-01-07T07:55:33;19.23;;;11.40;;
22650;SDS011;11492;42.646;23.400;2024-01-07T07:57:59;27.08;;;12.50;;
22650;SDS011;11492;42.646;23.400;2024-01-07T08:00:25;22.42;;;12.38;;
22650;SDS011;11492;42.646;23.400;2024-01-07T08:02:50;20.85;;;12.10;;
22650;SDS011;11492;42.646;23.400;2024-01-07T08:05:16;23.13;;;12.38;;
22650;SDS011;11492;42.646;23.400;2024-01-07T08:07:42;24.02;;;12.45;;
22650;SDS011;11492;42.646;23.400;2024-01-07T08:10:08;24.30;;;12.48;;
22650;SDS011;11492;42.646;23.400;2024-01-07T08:12:34;26.70;;;12.75;;
22650;SDS011;11492;42.646;23.400;2024-01-07T08:15:00;25.33;;;13.18;;
22650;SDS011;11492;42.646;23.400;2024-01-07T08:17:26;23.45;;;13.45;;
22650;SDS011;11492;42.646;23.400;2024-01-07T08:19:51;28.17;;;14.05;;
22650;SDS011;11492;42.646;23.400;2024-01-07T08:22:18;23.63;;;14.32;;
22650;SDS011;11492;42.646;23.400;2024-01-07T08:24:43;23.05;;;13.35;;
22650;SDS011;11492;42.646;23.400;2024-01-07T08:27:09;22.35;;;13.13;;
22650;SDS011;11492;42.646;23.400;2024-01-07T08:29:35;22.83;;;12.40;;
22650;SDS011;11492;42.646;23.400;2024-01-07T08:32:00;24.02;;;12.10;;
22650;SDS011;11492;42.646;23.400;2024-01-07T08:34:26;22.65;;;13.32;;
22650;SDS011;11492;42.646;23.400;2024-01-07T08:36:52;24.65;;;14.23;;
22650;SDS011;11492;42.646;23.400;2024-01-07T08:39:21;29.77;;;14.55;;
22650;SDS011;11492;42.646;23.400;2024-01-07T08:41:46;29.65;;;14.55;;
22650;SDS011;11492;42.646;23.400;2024-01-07T08:44:12;29.38;;;14.70;;
22650;SDS011;11492;42.646;23.400;2024-01-07T08:46:38;24.13;;;13.80;;
22650;SDS011;11492;42.646;23.400;2024-01-07T08:49:03;23.95;;;13.18;;
22650;SDS011;11492;42.646;23.400;2024-01-07T08:51:29;20.40;;;12.88;;
22650;SDS011;11492;42.646;23.400;2024-01-07T08:53:55;27.75;;;14.50;;
22650;SDS011;11492;42.646;23.400;2024-01-07T08:56:22;27.63;;;14.80;;
22650;SDS011;11492;42.646;23.400;2024-01-07T08:58:48;24.48;;;14.52;;
22650;SDS011;11492;42.646;23.400;2024-01-07T09:01:14;26.33;;;14.75;;
22650;SDS011;11492;42.646;23.400;2024-01-07T09:03:40;26.83;;;13.43;;
22650;SDS011;11492;42.646;23.400;2024-01-07T09:06:06;27.02;;;13.93;;
22650;SDS011;11492;42.646;23.400;2024-01-07T09:08:33;23.17;;;13.27;;
22650;SDS011;11492;42.646;23.400;2024-01-07T09:10:59;23.75;;;12.98;;
22650;SDS011;11492;42.646;23.400;2024-01-07T09:13:26;24.58;;;13.02;;
22650;SDS011;11492;42.646;23.400;2024-01-07T09:15:52;24.42;;;13.70;;
22650;SDS011;11492;42.646;23.400;2024-01-07T09:18:18;26.55;;;13.68;;
22650;SDS011;11492;42.646;23.400;2024-01-07T09:20:44;26.13;;;14.68;;
22650;SDS011;11492;42.646;23.400;2024-01-07T09:23:09;27.95;;;13.80;;
22650;SDS011;11492;42.646;23.400;2024-01-07T09:25:35;27.10;;;13.45;;
22650;SDS011;11492;42.646;23.400;2024-01-07T09:28:01;22.35;;;13.23;;
22650;SDS011;11492;42.646;23.400;2024-01-07T09:30:26;22.80;;;12.38;;
22650;SDS011;11492;42.646;23.400;2024-01-07T09:32:52;21.05;;;12.63;;
22650;SDS011;11492;42.646;23.400;2024-01-07T09:35:18;22.52;;;13.98;;
22650;SDS011;11492;42.646;23.400;2024-01-07T09:37:43;22.70;;;14.60;;
22650;SDS011;11492;42.646;23.400;2024-01-07T09:40:09;17.00;;;9.82;;
22650;SDS011;11492;42.646;23.400;2024-01-07T09:42:36;13.15;;;7.15;;
22650;SDS011;11492;42.646;23.400;2024-01-07T09:45:02;11.80;;;6.40;;
22650;SDS011;11492;42.646;23.400;2024-01-07T09:47:32;10.55;;;5.32;;
22650;SDS011;11492;42.646;23.400;2024-01-07T09:49:57;13.57;;;5.28;;
22650;SDS011;11492;42.646;23.400;2024-01-07T09:52:23;11.55;;;4.55;;
22650;SDS011;11492;42.646;23.400;2024-01-07T09:54:56;16.70;;;4.53;;
22650;SDS011;11492;42.646;23.400;2024-01-07T09:57:26;7.82;;;3.50;;
22650;SDS011;11492;42.646;23.400;2024-01-07T09:59:52;6.70;;;3.42;;
22650;SDS011;11492;42.646;23.400;2024-01-07T10:02:18;9.07;;;3.70;;
22650;SDS011;11492;42.646;23.400;2024-01-07T10:04:45;8.98;;;3.10;;
22650;SDS011;11492;42.646;23.400;2024-01-07T10:07:13;7.28;;;2.75;;
22650;SDS011;11492;42.646;23.400;2024-01-07T10:09:40;11.77;;;2.72;;
22650;SDS011;11492;42.646;23.400;2024-01-07T10:12:07;6.75;;;3.08;;
22650;SDS011;11492;42.646;23.400;2024-01-07T10:14:33;5.95;;;2.70;;
22650;SDS011;11492;42.646;23.400;2024-01-07T10:16:59;8.10;;;2.92;;
22650;SDS011;11492;42.646;23.400;2024-01-07T10:19:25;8.05;;;2.58;;
22650;SDS011;11492;42.646;23.400;2024-01-07T10:22:03;7.32;;;3.28;;
22650;SDS011;11492;42.646;23.400;2024-01-07T10:24:36;5.35;;;2.47;;
22650;SDS011;11492;42.646;23.400;2024-01-07T10:27:04;3.85;;;2.05;;
22650;SDS011;11492;42.646;23.400;2024-01-07T10:29:31;4.35;;;2.22;;
22650;SDS011;11492;42.646;23.400;2024-01-07T10:32:01;6.45;;;2.63;;
22650;SDS011;11492;42.646;23.400;2024-01-07T10:34:36;8.43;;;2.70;;
22650;SDS011;11492;42.646;23.400;2024-01-07T10:37:02;7.53;;;3.00;;
22650;SDS011;11492;42.646;23.400;2024-01-07T10:39:30;11.63;;;3.90;;
22650;SDS011;11492;42.646;23.400;2024-01-07T10:41:56;9.55;;;3.45;;
22650;SDS011;11492;42.646;23.400;2024-01-07T10:44:25;10.25;;;3.60;;
22650;SDS011;11492;42.646;23.400;2024-01-07T10:46:53;10.38;;;4.35;;
22650;SDS011;11492;42.646;23.400;2024-01-07T10:49:23;10.02;;;3.97;;
22650;SDS011;11492;42.646;23.400;2024-01-07T10:51:56;8.77;;;4.07;;
22650;SDS011;11492;42.646;23.400;2024-01-07T10:54:33;10.27;;;4.32;;
22650;SDS011;11492;42.646;23.400;2024-01-07T10:59:38;19.80;;;5.45;;
22650;SDS011;11492;42.646;23.400;2024-01-07T11:02:06;16.92;;;6.00;;
22650;SDS011;11492;42.646;23.400;2024-01-07T11:07:34;12.70;;;5.80;;
22650;SDS011;11492;42.646;23.400;2024-01-07T11:10:08;9.18;;;5.28;;
22650;SDS011;11492;42.646;23.400;2024-01-07T11:12:35;69.57;;;39.95;;
22650;SDS011;11492;42.646;23.400;2024-01-07T11:15:01;111.95;;;59.28;;
22650;SDS011;11492;42.646;23.400;2024-01-07T11:20:04;15.35;;;8.70;;
22650;SDS011;11492;42.646;23.400;2024-01-07T11:22:30;16.17;;;6.30;;
22650;SDS011;11492;42.646;23.400;2024-01-07T11:24:58;12.07;;;5.78;;
22650;SDS011;11492;42.646;23.400;2024-01-07T11:27:26;17.67;;;6.32;;
22650;SDS011;11492;42.646;23.400;2024-01-07T11:30:02;12.30;;;5.72;;
22650;SDS011;11492;42.646;23.400;2024-01-07T11:32:29;18.17;;;6.65;;
22650;SDS011;11492;42.646;23.400;2024-01-07T11:34:56;13.15;;;6.63;;
22650;SDS011;11492;42.646;23.400;2024-01-07T11:37:24;11.85;;;6.93;;
22650;SDS011;11492;42.646;23.400;2024-01-07T11:39:51;15.88;;;7.15;;
22650;SDS011;11492;42.646;23.400;2024-01-07T11:42:20;13.35;;;7.32;;
22650;SDS011;11492;42.646;23.400;2024-01-07T11:44:52;16.98;;;7.55;;
22650;SDS011;11492;42.646;23.400;2024-01-07T11:47:19;15.48;;;7.57;;
22650;SDS011;11492;42.646;23.400;2024-01-07T11:49:46;22.23;;;7.25;;
22650;SDS011;11492;42.646;23.400;2024-01-07T11:52:14;18.05;;;7.60;;
22650;SDS011;11492;42.646;23.400;2024-01-07T11:54:40;20.02;;;9.32;;
22650;SDS011;11492;42.646;23.400;2024-01-07T11:57:07;19.95;;;8.98;;
22650;SDS011;11492;42.646;23.400;2024-01-07T11:59:33;22.38;;;8.20;;
22650;SDS011;11492;42.646;23.400;2024-01-07T12:02:03;14.35;;;7.30;;
22650;SDS011;11492;42.646;23.400;2024-01-07T12:04:32;17.08;;;7.82;;
22650;SDS011;11492;42.646;23.400;2024-01-07T12:06:59;16.48;;;6.65;;
22650;SDS011;11492;42.646;23.400;2024-01-07T12:09:26;13.52;;;6.85;;
22650;SDS011;11492;42.646;23.400;2024-01-07T12:11:52;22.20;;;6.85;;
22650;SDS011;11492;42.646;23.400;2024-01-07T12:14:18;14.60;;;6.53;;
22650;SDS011;11492;42.646;23.400;2024-01-07T12:16:44;15.82;;;6.78;;
22650;SDS011;11492;42.646;23.400;2024-01-07T12:19:10;15.30;;;6.72;;
22650;SDS011;11492;42.646;23.400;2024-01-07T12:21:36;15.70;;;6.10;;
22650;SDS011;11492;42.646;23.400;2024-01-07T12:24:03;13.90;;;6.00;;
22650;SDS011;11492;42.646;23.400;2024-01-07T12:26:29;13.68;;;5.88;;
22650;SDS011;11492;42.646;23.400;2024-01-07T12:28:58;13.43;;;5.82;;
22650;SDS011;11492;42.646;23.400;2024-01-07T12:31:28;15.40;;;5.88;;
22650;SDS011;11492;42.646;23.400;2024-01-07T12:33:57;18.73;;;5.82;;
22650;SDS011;11492;42.646;23.400;2024-01-07T12:36:24;12.77;;;5.68;;
22650;SDS011;11492;42.646;23.400;2024-01-07T12:38:50;14.35;;;5.80;;
22650;SDS011;11492;42.646;23.400;2024-01-07T12:41:19;12.57;;;5.95;;
22650;SDS011;11492;42.646;23.400;2024-01-07T12:43:45;9.40;;;5.13;;
22650;SDS011;11492;42.646;23.400;2024-01-07T12:46:11;9.45;;;4.88;;
22650;SDS011;11492;42.646;23.400;2024-01-07T12:48:36;12.57;;;4.57;;
22650;SDS011;11492;42.646;23.400;2024-01-07T12:51:02;14.23;;;5.38;;
22650;SDS011;11492;42.646;23.400;2024-01-07T12:53:28;15.88;;;5.50;;
22650;SDS011;11492;42.646;23.400;2024-01-07T12:55:54;13.27;;;5.93;;
22650;SDS011;11492;42.646;23.400;2024-01-07T12:58:20;11.95;;;5.80;;
22650;SDS011;11492;42.646;23.400;2024-01-07T13:00:46;13.05;;;5.32;;
22650;SDS011;11492;42.646;23.400;2024-01-07T13:03:12;9.75;;;5.72;;
22650;SDS011;11492;42.646;23.400;2024-01-07T13:05:44;18.30;;;6.63;;
22650;SDS011;11492;42.646;23.400;2024-01-07T13:08:15;13.13;;;6.18;;
22650;SDS011;11492;42.646;23.400;2024-01-07T13:10:41;13.55;;;6.15;;
22650;SDS011;11492;42.646;23.400;2024-01-07T13:13:06;17.02;;;6.18;;
22650;SDS011;11492;42.646;23.400;2024-01-07T13:15:34;16.88;;;5.53;;
22650;SDS011;11492;42.646;23.400;2024-01-07T13:18:00;12.02;;;5.57;;
22650;SDS011;11492;42.646;23.400;2024-01-07T13:20:26;13.85;;;5.60;;
22650;SDS011;11492;42.646;23.400;2024-01-07T13:22:52;12.00;;;5.65;;
22650;SDS011;11492;42.646;23.400;2024-01-07T13:25:17;23.02;;;6.25;;
22650;SDS011;11492;42.646;23.400;2024-01-07T13:27:43;10.18;;;5.45;;
22650;SDS011;11492;42.646;23.400;2024-01-07T13:30:09;11.73;;;5.70;;
22650;SDS011;11492;42.646;23.400;2024-01-07T13:32:35;12.90;;;5.68;;
22650;SDS011;11492;42.646;23.400;2024-01-07T13:35:03;17.85;;;5.35;;
22650;SDS011;11492;42.646;23.400;2024-01-07T13:37:30;11.98;;;5.22;;
22650;SDS011;11492;42.646;23.400;2024-01-07T13:39:58;10.52;;;5.05;;
22650;SDS011;11492;42.646;23.400;2024-01-07T13:42:24;11.38;;;4.88;;
22650;SDS011;11492;42.646;23.400;2024-01-07T13:44:49;18.33;;;5.03;;
22650;SDS011;11492;42.646;23.400;2024-01-07T13:47:15;15.88;;;4.93;;
22650;SDS011;11492;42.646;23.400;2024-01-07T13:49:41;20.60;;;5.55;;
22650;SDS011;11492;42.646;23.400;2024-01-07T13:52:07;14.48;;;4.82;;
22650;SDS011;11492;42.646;23.400;2024-01-07T13:54:33;13.05;;;4.97;;
22650;SDS011;11492;42.646;23.400;2024-01-07T13:56:58;13.63;;;6.20;;
22650;SDS011;11492;42.646;23.400;2024-01-07T13:59:25;16.73;;;6.60;;
22650;SDS011;11492;42.646;23.400;2024-01-07T14:01:51;16.55;;;6.97;;
22650;SDS011;11492;42.646;23.400;2024-01-07T14:04:17;16.33;;;8.10;;
22650;SDS011;11492;42.646;23.400;2024-01-07T14:06:42;17.45;;;7.40;;
22650;SDS011;11492;42.646;23.400;2024-01-07T14:09:09;15.57;;;5.90;;
22650;SDS011;11492;42.646;23.400;2024-01-07T14:11:35;16.77;;;5.90;;
22650;SDS011;11492;42.646;23.400;2024-01-07T14:14:01;10.80;;;4.75;;
22650;SDS011;11492;42.646;23.400;2024-01-07T14:16:27;9.48;;;4.97;;
22650;SDS011;11492;42.646;23.400;2024-01-07T14:18:53;11.43;;;5.13;;
22650;SDS011;11492;42.646;23.400;2024-01-07T14:21:19;13.70;;;6.30;;
22650;SDS011;11492;42.646;23.400;2024-01-07T14:23:45;14.55;;;5.85;;